PWSweather.com
Personal Weather Stations
Station Observations
KPAMECHA5
Mechanicsburg, PA 17050

Mechanicsburg, PA 17050

Lat: 40.21531, Lon: -77.0395

Elevation: 430

Station Type: Davis 6322

http://MechanicsburgWeather.com

Latest ConditionsUpdated 2:20:09 PM EDT Thursday, Apr 17, 2014
Currently Today's Max Today's Min Today's Average
Temperature 54.2°F12.3°C 54.2°F12.3°C 27.6°F-2.4°C 38.5°F3.6°C
Dew Point 36.4°F2.4°C 36.4°F2.4°C 21.6°F-5.8°C 26.2°F-3.2°C
Winds 6.4 mph SE10.3 kmh SE 7.2 mph SE11.6 kmh SE - 1.7 mph 2.7 kmh
Wind Gusts 10.0 mph16.1 kmh 11.0 mph17.7 kmh - -
Humidity 51% 81% 47% 62%
Pressure 30.55 in1034.5 mb 30.62 in1036.9 mb 30.50 in1032.8 mb -
Hour Temp Dew Point Humidity Winds Wind Gusts Pressure Precip Precip Rate Daily Precip Total
02:20 PM 54.2°F12.3°C 36.4°F2.4°C 51% 6.4 mph SE10.3 kmh SE 10.0 mph16.1 kmh 30.55 in1034.5 mb 0.00 in0.0 mm 0.00 in/hr0.0 mm/hr 0.00 in0.0 mm
02:10 PM 54.0°F12.2°C 34.8°F1.6°C 48% 5.3 mph E8.5 kmh E 8.0 mph12.9 kmh 30.55 in1034.5 mb 0.00 in0.0 mm 0.00 in/hr0.0 mm/hr 0.00 in0.0 mm
02:00 PM 53.9°F12.2°C 35.7°F2.1°C 50% 5.7 mph ESE9.2 kmh ESE 9.0 mph14.5 kmh 30.56 in1034.9 mb 0.00 in0.0 mm 0.00 in/hr0.0 mm/hr 0.00 in0.0 mm
01:50 PM 53.1°F11.7°C 33.9°F1.1°C 48% 1.6 mph S2.6 kmh S 8.0 mph12.9 kmh 30.56 in1034.9 mb 0.00 in0.0 mm 0.00 in/hr0.0 mm/hr 0.00 in0.0 mm
01:40 PM 52.9°F11.6°C 33.2°F0.7°C 47% 1.3 mph SW2.1 kmh SW 7.0 mph11.3 kmh 30.56 in1034.9 mb 0.00 in0.0 mm 0.00 in/hr0.0 mm/hr 0.00 in0.0 mm
01:30 PM 52.3°F11.3°C 34.7°F1.5°C 51% 4.4 mph SSE7.1 kmh SSE 7.0 mph11.3 kmh 30.57 in1035.2 mb 0.00 in0.0 mm 0.00 in/hr0.0 mm/hr 0.00 in0.0 mm
01:20 PM 51.9°F11.1°C 33.8°F1.0°C 50% 1.3 mph S2.1 kmh S 2.0 mph3.2 kmh 30.57 in1035.2 mb 0.00 in0.0 mm 0.00 in/hr0.0 mm/hr 0.00 in0.0 mm
01:10 PM 52.2°F11.2°C 34.6°F1.4°C 51% 7.2 mph SE11.6 kmh SE 10.0 mph16.1 kmh 30.57 in1035.2 mb 0.00 in0.0 mm 0.00 in/hr0.0 mm/hr 0.00 in0.0 mm
01:00 PM 51.8°F11.0°C 32.7°F0.4°C 48% 3.5 mph SW5.6 kmh SW 4.0 mph6.4 kmh 30.58 in1035.6 mb 0.00 in0.0 mm 0.00 in/hr0.0 mm/hr 0.00 in0.0 mm
12:50 PM 51.7°F10.9°C 33.1°F0.6°C 49% 3.3 mph SSE5.3 kmh SSE 9.0 mph14.5 kmh 30.58 in1035.6 mb 0.00 in0.0 mm 0.00 in/hr0.0 mm/hr 0.00 in0.0 mm
12:40 PM 51.5°F10.8°C 32.4°F0.2°C 48% 4.7 mph SE7.6 kmh SE 7.0 mph11.3 kmh 30.58 in1035.6 mb 0.00 in0.0 mm 0.00 in/hr0.0 mm/hr 0.00 in0.0 mm
12:30 PM 50.4°F10.2°C 32.5°F0.3°C 50% 4.7 mph SE7.6 kmh SE 10.0 mph16.1 kmh 30.58 in1035.6 mb 0.00 in0.0 mm 0.00 in/hr0.0 mm/hr 0.00 in0.0 mm
12:20 PM 50.3°F10.2°C 31.9°F-0.1°C 49% 5.0 mph SE8.0 kmh SE 6.0 mph9.7 kmh 30.59 in1035.9 mb 0.00 in0.0 mm 0.00 in/hr0.0 mm/hr 0.00 in0.0 mm
12:10 PM 50.9°F10.5°C 33.8°F1.0°C 52% 4.3 mph SE6.9 kmh SE 7.0 mph11.3 kmh 30.59 in1035.9 mb 0.00 in0.0 mm 0.00 in/hr0.0 mm/hr 0.00 in0.0 mm
12:00 PM 50.1°F10.1°C 33.6°F0.9°C 53% 2.5 mph S4.0 kmh S 6.0 mph9.7 kmh 30.59 in1035.9 mb 0.00 in0.0 mm 0.00 in/hr0.0 mm/hr 0.00 in0.0 mm
11:50 AM 48.7°F9.3°C 32.8°F0.4°C 54% 0.6 mph E1.0 kmh E 3.0 mph4.8 kmh 30.59 in1035.9 mb 0.00 in0.0 mm 0.00 in/hr0.0 mm/hr 0.00 in0.0 mm
11:40 AM 48.6°F9.2°C 31.2°F-0.4°C 51% 4.1 mph ESE6.6 kmh ESE 6.0 mph9.7 kmh 30.60 in1036.2 mb 0.00 in0.0 mm 0.00 in/hr0.0 mm/hr 0.00 in0.0 mm
11:30 AM 48.5°F9.2°C 30.7°F-0.7°C 50% 5.5 mph E8.9 kmh E 8.0 mph12.9 kmh 30.61 in1036.6 mb 0.00 in0.0 mm 0.00 in/hr0.0 mm/hr 0.00 in0.0 mm
11:20 AM 48.2°F9.0°C 30.9°F-0.6°C 51% 5.2 mph SSE8.4 kmh SSE 10.0 mph16.1 kmh 30.61 in1036.6 mb 0.00 in0.0 mm 0.00 in/hr0.0 mm/hr 0.00 in0.0 mm
11:10 AM 48.0°F8.9°C 30.2°F-1.0°C 50% 5.1 mph S8.2 kmh S 9.0 mph14.5 kmh 30.61 in1036.6 mb 0.00 in0.0 mm 0.00 in/hr0.0 mm/hr 0.00 in0.0 mm
11:00 AM 48.1°F8.9°C 30.9°F-0.6°C 51% 2.8 mph S4.5 kmh S 8.0 mph12.9 kmh 30.62 in1036.9 mb 0.00 in0.0 mm 0.00 in/hr0.0 mm/hr 0.00 in0.0 mm
10:50 AM 47.4°F8.6°C 30.2°F-1.0°C 51% 5.5 mph SSE8.9 kmh SSE 7.0 mph11.3 kmh 30.62 in1036.9 mb 0.00 in0.0 mm 0.00 in/hr0.0 mm/hr 0.00 in0.0 mm
10:40 AM 46.6°F8.1°C 28.5°F-1.9°C 49% 3.6 mph WSW5.8 kmh WSW 6.0 mph9.7 kmh 30.62 in1036.9 mb 0.00 in0.0 mm 0.00 in/hr0.0 mm/hr 0.00 in0.0 mm
10:30 AM 46.1°F7.8°C 28.9°F-1.7°C 51% 4.2 mph SE6.8 kmh SE 9.0 mph14.5 kmh 30.62 in1036.9 mb 0.00 in0.0 mm 0.00 in/hr0.0 mm/hr 0.00 in0.0 mm
10:20 AM 45.6°F7.6°C 29.9°F-1.2°C 54% 2.9 mph E4.7 kmh E 7.0 mph11.3 kmh 30.62 in1036.9 mb 0.00 in0.0 mm 0.00 in/hr0.0 mm/hr 0.00 in0.0 mm
10:10 AM 45.1°F7.3°C 28.5°F-1.9°C 52% 1.5 mph ESE2.4 kmh ESE 5.0 mph8.0 kmh 30.62 in1036.9 mb 0.00 in0.0 mm 0.00 in/hr0.0 mm/hr 0.00 in0.0 mm
10:00 AM 44.0°F6.7°C 28.8°F-1.8°C 55% 3.9 mph SSE6.3 kmh SSE 8.0 mph12.9 kmh 30.62 in1036.9 mb 0.00 in0.0 mm 0.00 in/hr0.0 mm/hr 0.00 in0.0 mm
09:50 AM 43.3°F6.3°C 26.8°F-2.9°C 52% 3.7 mph SE6.0 kmh SE 9.0 mph14.5 kmh 30.62 in1036.9 mb 0.00 in0.0 mm 0.00 in/hr0.0 mm/hr 0.00 in0.0 mm
09:40 AM 43.1°F6.2°C 27.1°F-2.7°C 53% 5.1 mph SE8.2 kmh SE 10.0 mph16.1 kmh 30.62 in1036.9 mb 0.00 in0.0 mm 0.00 in/hr0.0 mm/hr 0.00 in0.0 mm
09:30 AM 43.1°F6.2°C 27.6°F-2.4°C 54% 4.8 mph ESE7.7 kmh ESE 8.0 mph12.9 kmh 30.61 in1036.6 mb 0.00 in0.0 mm 0.00 in/hr0.0 mm/hr 0.00 in0.0 mm
09:20 AM 42.6°F5.9°C 28.0°F-2.2°C 56% 3.8 mph SE6.1 kmh SE 5.0 mph8.0 kmh 30.61 in1036.6 mb 0.00 in0.0 mm 0.00 in/hr0.0 mm/hr 0.00 in0.0 mm
09:10 AM 41.6°F5.3°C 27.1°F-2.7°C 56% 3.5 mph ESE5.6 kmh ESE 4.0 mph6.4 kmh 30.61 in1036.6 mb 0.00 in0.0 mm 0.00 in/hr0.0 mm/hr 0.00 in0.0 mm
09:00 AM 40.8°F4.9°C 26.3°F-3.2°C 56% 5.1 mph ESE8.2 kmh ESE 7.0 mph11.3 kmh 30.61 in1036.6 mb 0.00 in0.0 mm 0.00 in/hr0.0 mm/hr 0.00 in0.0 mm
08:50 AM 40.2°F4.6°C 26.6°F-3.0°C 58% 4.0 mph SSE6.4 kmh SSE 8.0 mph12.9 kmh 30.61 in1036.6 mb 0.00 in0.0 mm 0.00 in/hr0.0 mm/hr 0.00 in0.0 mm
08:40 AM 40.1°F4.5°C 26.9°F-2.8°C 59% 4.5 mph ENE7.2 kmh ENE 11.0 mph17.7 kmh 30.61 in1036.6 mb 0.00 in0.0 mm 0.00 in/hr0.0 mm/hr 0.00 in0.0 mm
08:30 AM 39.4°F4.1°C 26.7°F-2.9°C 60% 1.9 mph SE3.1 kmh SE 5.0 mph8.0 kmh 30.61 in1036.6 mb 0.00 in0.0 mm 0.00 in/hr0.0 mm/hr 0.00 in0.0 mm
08:20 AM 38.5°F3.6°C 25.8°F-3.4°C 60% 1.1 mph SE1.8 kmh SE 4.0 mph6.4 kmh 30.61 in1036.6 mb 0.00 in0.0 mm 0.00 in/hr0.0 mm/hr 0.00 in0.0 mm
08:10 AM 37.7°F3.2°C 25.9°F-3.4°C 62% 1.9 mph ESE3.1 kmh ESE 5.0 mph8.0 kmh 30.61 in1036.6 mb 0.00 in0.0 mm 0.00 in/hr0.0 mm/hr 0.00 in0.0 mm
08:00 AM 36.1°F2.3°C 25.5°F-3.6°C 65% 0.2 mph ESE0.3 kmh ESE 2.0 mph3.2 kmh 30.60 in1036.2 mb 0.00 in0.0 mm 0.00 in/hr0.0 mm/hr 0.00 in0.0 mm
07:50 AM 33.3°F0.7°C 25.2°F-3.8°C 72% 0.9 mph ESE1.4 kmh ESE 5.0 mph8.0 kmh 30.60 in1036.2 mb 0.00 in0.0 mm 0.00 in/hr0.0 mm/hr 0.00 in0.0 mm
07:40 AM 30.5°F-0.8°C 24.8°F-4.0°C 79% Calm Calm 1.0 mph1.6 kmh 30.60 in1036.2 mb 0.00 in0.0 mm 0.00 in/hr0.0 mm/hr 0.00 in0.0 mm
07:30 AM 29.3°F-1.5°C 23.9°F-4.5°C 80% Calm Calm -- 30.60 in1036.2 mb 0.00 in0.0 mm 0.00 in/hr0.0 mm/hr 0.00 in0.0 mm
07:20 AM 28.5°F-1.9°C 23.4°F-4.8°C 81% Calm Calm -- 30.59 in1035.9 mb 0.00 in0.0 mm 0.00 in/hr0.0 mm/hr 0.00 in0.0 mm
07:10 AM 28.2°F-2.1°C 23.1°F-4.9°C 81% Calm Calm -- 30.58 in1035.6 mb 0.00 in0.0 mm 0.00 in/hr0.0 mm/hr 0.00 in0.0 mm
07:00 AM 27.8°F-2.3°C 22.4°F-5.3°C 80% Calm Calm -- 30.58 in1035.6 mb 0.00 in0.0 mm 0.00 in/hr0.0 mm/hr 0.00 in0.0 mm
06:50 AM 27.6°F-2.4°C 21.9°F-5.6°C 79% Calm Calm -- 30.57 in1035.2 mb 0.00 in0.0 mm 0.00 in/hr0.0 mm/hr 0.00 in0.0 mm
06:40 AM 27.8°F-2.3°C 22.1°F-5.5°C 79% Calm Calm -- 30.57 in1035.2 mb 0.00 in0.0 mm 0.00 in/hr0.0 mm/hr 0.00 in0.0 mm
06:30 AM 28.0°F-2.2°C 22.0°F-5.6°C 78% Calm Calm -- 30.57 in1035.2 mb 0.00 in0.0 mm 0.00 in/hr0.0 mm/hr 0.00 in0.0 mm
06:20 AM 28.4°F-2.0°C 22.4°F-5.3°C 78% Calm Calm -- 30.57 in1035.2 mb 0.00 in0.0 mm 0.00 in/hr0.0 mm/hr 0.00 in0.0 mm
06:10 AM 28.7°F-1.8°C 22.4°F-5.3°C 77% Calm Calm -- 30.56 in1034.9 mb 0.00 in0.0 mm 0.00 in/hr0.0 mm/hr 0.00 in0.0 mm
06:00 AM 28.9°F-1.7°C 22.0°F-5.6°C 75% Calm Calm -- 30.56 in1034.9 mb 0.00 in0.0 mm 0.00 in/hr0.0 mm/hr 0.00 in0.0 mm
05:50 AM 29.3°F-1.5°C 22.0°F-5.6°C 74% Calm Calm -- 30.55 in1034.5 mb 0.00 in0.0 mm 0.00 in/hr0.0 mm/hr 0.00 in0.0 mm
05:40 AM 29.7°F-1.3°C 22.1°F-5.5°C 73% Calm Calm -- 30.55 in1034.5 mb 0.00 in0.0 mm 0.00 in/hr0.0 mm/hr 0.00 in0.0 mm
05:30 AM 30.2°F-1.0°C 21.9°F-5.6°C 71% Calm Calm -- 30.54 in1034.2 mb 0.00 in0.0 mm 0.00 in/hr0.0 mm/hr 0.00 in0.0 mm
05:20 AM 30.5°F-0.8°C 21.6°F-5.8°C 69% Calm Calm -- 30.54 in1034.2 mb 0.00 in0.0 mm 0.00 in/hr0.0 mm/hr 0.00 in0.0 mm
05:10 AM 30.7°F-0.7°C 21.7°F-5.7°C 69% Calm Calm -- 30.54 in1034.2 mb 0.00 in0.0 mm 0.00 in/hr0.0 mm/hr 0.00 in0.0 mm
05:00 AM 30.6°F-0.8°C 21.6°F-5.8°C 69% Calm Calm 1.0 mph1.6 kmh 30.54 in1034.2 mb 0.00 in0.0 mm 0.00 in/hr0.0 mm/hr 0.00 in0.0 mm
04:50 AM 30.4°F-0.9°C 22.1°F-5.5°C 71% Calm Calm -- 30.54 in1034.2 mb 0.00 in0.0 mm 0.00 in/hr0.0 mm/hr 0.00 in0.0 mm
04:40 AM 30.2°F-1.0°C 22.2°F-5.4°C 72% Calm Calm -- 30.54 in1034.2 mb 0.00 in0.0 mm 0.00 in/hr0.0 mm/hr 0.00 in0.0 mm
04:30 AM 29.7°F-1.3°C 22.1°F-5.5°C 73% Calm Calm -- 30.54 in1034.2 mb 0.00 in0.0 mm 0.00 in/hr0.0 mm/hr 0.00 in0.0 mm
04:20 AM 29.7°F-1.3°C 22.1°F-5.5°C 73% Calm Calm -- 30.54 in1034.2 mb 0.00 in0.0 mm 0.00 in/hr0.0 mm/hr 0.00 in0.0 mm
04:10 AM 29.9°F-1.2°C 22.7°F-5.2°C 74% Calm Calm -- 30.53 in1033.9 mb 0.00 in0.0 mm 0.00 in/hr0.0 mm/hr 0.00 in0.0 mm
04:00 AM 30.4°F-0.9°C 23.1°F-4.9°C 74% Calm Calm -- 30.53 in1033.9 mb 0.00 in0.0 mm 0.00 in/hr0.0 mm/hr 0.00 in0.0 mm
03:50 AM 31.0°F-0.6°C 22.7°F-5.2°C 71% Calm Calm -- 30.53 in1033.9 mb 0.00 in0.0 mm 0.00 in/hr0.0 mm/hr 0.00 in0.0 mm
03:40 AM 31.7°F-0.2°C 23.0°F-5.0°C 70% Calm Calm -- 30.53 in1033.9 mb 0.00 in0.0 mm 0.00 in/hr0.0 mm/hr 0.00 in0.0 mm
03:30 AM 32.4°F0.2°C 22.7°F-5.2°C 67% Calm Calm -- 30.53 in1033.9 mb 0.00 in0.0 mm 0.00 in/hr0.0 mm/hr 0.00 in0.0 mm
03:20 AM 32.9°F0.5°C 22.8°F-5.1°C 66% Calm Calm -- 30.53 in1033.9 mb 0.00 in0.0 mm 0.00 in/hr0.0 mm/hr 0.00 in0.0 mm
03:10 AM 33.2°F0.7°C 22.7°F-5.2°C 65% 0.2 mph E0.3 kmh E 1.0 mph1.6 kmh 30.53 in1033.9 mb 0.00 in0.0 mm 0.00 in/hr0.0 mm/hr 0.00 in0.0 mm
03:00 AM 33.5°F0.8°C 23.0°F-5.0°C 65% Calm Calm -- 30.53 in1033.9 mb 0.00 in0.0 mm 0.00 in/hr0.0 mm/hr 0.00 in0.0 mm
02:50 AM 33.5°F0.8°C 23.0°F-5.0°C 65% 0.2 mph E0.3 kmh E 1.0 mph1.6 kmh 30.53 in1033.9 mb 0.00 in0.0 mm 0.00 in/hr0.0 mm/hr 0.00 in0.0 mm
02:40 AM 33.4°F0.8°C 23.3°F-4.8°C 66% Calm Calm 1.0 mph1.6 kmh 30.53 in1033.9 mb 0.00 in0.0 mm 0.00 in/hr0.0 mm/hr 0.00 in0.0 mm
02:30 AM 33.3°F0.7°C 22.8°F-5.1°C 65% 0.1 mph E0.2 kmh E 1.0 mph1.6 kmh 30.53 in1033.9 mb 0.00 in0.0 mm 0.00 in/hr0.0 mm/hr 0.00 in0.0 mm
02:20 AM 33.4°F0.8°C 22.5°F-5.3°C 64% Calm Calm 1.0 mph1.6 kmh 30.53 in1033.9 mb 0.00 in0.0 mm 0.00 in/hr0.0 mm/hr 0.00 in0.0 mm
02:10 AM 33.6°F0.9°C 22.7°F-5.2°C 64% Calm Calm -- 30.53 in1033.9 mb 0.00 in0.0 mm 0.00 in/hr0.0 mm/hr 0.00 in0.0 mm
02:00 AM 33.9°F1.1°C 22.6°F-5.2°C 63% 0.1 mph E0.2 kmh E 1.0 mph1.6 kmh 30.53 in1033.9 mb 0.00 in0.0 mm 0.00 in/hr0.0 mm/hr 0.00 in0.0 mm
01:50 AM 34.4°F1.3°C 22.7°F-5.2°C 62% Calm Calm -- 30.53 in1033.9 mb 0.00 in0.0 mm 0.00 in/hr0.0 mm/hr 0.00 in0.0 mm
01:40 AM 34.4°F1.3°C 22.7°F-5.2°C 62% Calm Calm -- 30.53 in1033.9 mb 0.00 in0.0 mm 0.00 in/hr0.0 mm/hr 0.00 in0.0 mm
01:30 AM 34.8°F1.6°C 22.7°F-5.2°C 61% Calm Calm -- 30.53 in1033.9 mb 0.00 in0.0 mm 0.00 in/hr0.0 mm/hr 0.00 in0.0 mm
01:20 AM 35.0°F1.7°C 22.9°F-5.1°C 61% 0.3 mph E0.5 kmh E 1.0 mph1.6 kmh 30.52 in1033.5 mb 0.00 in0.0 mm 0.00 in/hr0.0 mm/hr 0.00 in0.0 mm
01:10 AM 34.7°F1.5°C 23.0°F-5.0°C 62% 0.3 mph E0.5 kmh E 1.0 mph1.6 kmh 30.52 in1033.5 mb 0.00 in0.0 mm 0.00 in/hr0.0 mm/hr 0.00 in0.0 mm
01:00 AM 34.7°F1.5°C 23.0°F-5.0°C 62% Calm Calm -- 30.52 in1033.5 mb 0.00 in0.0 mm 0.00 in/hr0.0 mm/hr 0.00 in0.0 mm
12:50 AM 35.0°F1.7°C 22.9°F-5.1°C 61% Calm Calm 1.0 mph1.6 kmh 30.52 in1033.5 mb 0.00 in0.0 mm 0.00 in/hr0.0 mm/hr 0.00 in0.0 mm
12:40 AM 34.9°F1.6°C 22.8°F-5.1°C 61% 0.2 mph SE0.3 kmh SE -- 30.52 in1033.5 mb 0.00 in0.0 mm 0.00 in/hr0.0 mm/hr 0.00 in0.0 mm
12:30 AM 34.6°F1.4°C 22.9°F-5.1°C 62% Calm Calm -- 30.51 in1033.2 mb 0.00 in0.0 mm 0.00 in/hr0.0 mm/hr 0.00 in0.0 mm
12:20 AM 34.4°F1.3°C 23.1°F-4.9°C 63% 0.1 mph SE0.2 kmh SE 1.0 mph1.6 kmh 30.51 in1033.2 mb 0.00 in0.0 mm 0.00 in/hr0.0 mm/hr 0.00 in0.0 mm
12:10 AM 33.8°F1.0°C 23.3°F-4.8°C 65% Calm Calm 1.0 mph1.6 kmh 30.51 in1033.2 mb 0.00 in0.0 mm 0.00 in/hr0.0 mm/hr 0.00 in0.0 mm
12:00 AM 33.6°F0.9°C 23.1°F-4.9°C 65% Calm Calm 1.0 mph1.6 kmh 30.50 in1032.8 mb 0.00 in0.0 mm 0.00 in/hr0.0 mm/hr 0.00 in0.0 mm